sensor_id;sensor_type;location;lat;lon;timestamp;P1;durP1;ratioP1;P2;durP2;ratioP2
16484;SDS011;8353;47.856;12.344;2023-06-26T00:01:34;5.57;;;5.00;;
16484;SDS011;8353;47.856;12.344;2023-06-26T00:04:22;4.88;;;4.47;;
16484;SDS011;8353;47.856;12.344;2023-06-26T00:07:08;6.15;;;5.15;;
16484;SDS011;8353;47.856;12.344;2023-06-26T00:09:55;5.93;;;5.32;;
16484;SDS011;8353;47.856;12.344;2023-06-26T00:12:43;12.57;;;6.32;;
16484;SDS011;8353;47.856;12.344;2023-06-26T00:15:30;5.75;;;4.75;;
16484;SDS011;8353;47.856;12.344;2023-06-26T00:18:18;4.60;;;4.10;;
16484;SDS011;8353;47.856;12.344;2023-06-26T00:21:05;6.57;;;5.30;;
16484;SDS011;8353;47.856;12.344;2023-06-26T00:23:52;4.10;;;3.70;;
16484;SDS011;8353;47.856;12.344;2023-06-26T00:26:39;4.63;;;4.22;;
16484;SDS011;8353;47.856;12.344;2023-06-26T00:29:26;5.00;;;4.50;;
16484;SDS011;8353;47.856;12.344;2023-06-26T00:32:13;4.57;;;4.13;;
16484;SDS011;8353;47.856;12.344;2023-06-26T00:35:01;4.82;;;4.35;;
16484;SDS011;8353;47.856;12.344;2023-06-26T00:37:47;6.93;;;6.03;;
16484;SDS011;8353;47.856;12.344;2023-06-26T00:40:34;5.20;;;4.70;;
16484;SDS011;8353;47.856;12.344;2023-06-26T00:43:21;4.32;;;3.92;;
16484;SDS011;8353;47.856;12.344;2023-06-26T00:46:08;4.38;;;3.97;;
16484;SDS011;8353;47.856;12.344;2023-06-26T00:48:56;4.32;;;3.92;;
16484;SDS011;8353;47.856;12.344;2023-06-26T00:51:46;4.30;;;3.90;;
16484;SDS011;8353;47.856;12.344;2023-06-26T00:54:35;4.35;;;3.95;;
16484;SDS011;8353;47.856;12.344;2023-06-26T00:57:21;4.47;;;3.85;;
16484;SDS011;8353;47.856;12.344;2023-06-26T01:00:09;4.38;;;3.90;;
16484;SDS011;8353;47.856;12.344;2023-06-26T01:02:57;5.40;;;4.10;;
16484;SDS011;8353;47.856;12.344;2023-06-26T01:05:44;5.30;;;4.80;;
16484;SDS011;8353;47.856;12.344;2023-06-26T01:08:35;5.47;;;4.55;;
16484;SDS011;8353;47.856;12.344;2023-06-26T01:11:22;4.53;;;4.13;;
16484;SDS011;8353;47.856;12.344;2023-06-26T01:14:09;4.45;;;4.05;;
16484;SDS011;8353;47.856;12.344;2023-06-26T01:16:56;4.38;;;4.05;;
16484;SDS011;8353;47.856;12.344;2023-06-26T01:19:43;5.15;;;4.38;;
16484;SDS011;8353;47.856;12.344;2023-06-26T01:22:31;4.55;;;4.15;;
16484;SDS011;8353;47.856;12.344;2023-06-26T01:25:32;5.30;;;4.80;;
16484;SDS011;8353;47.856;12.344;2023-06-26T01:28:25;5.47;;;4.80;;
16484;SDS011;8353;47.856;12.344;2023-06-26T01:31:13;4.85;;;4.45;;
16484;SDS011;8353;47.856;12.344;2023-06-26T01:34:01;4.63;;;4.20;;
16484;SDS011;8353;47.856;12.344;2023-06-26T01:36:48;5.47;;;4.97;;
16484;SDS011;8353;47.856;12.344;2023-06-26T01:39:35;5.13;;;4.63;;
16484;SDS011;8353;47.856;12.344;2023-06-26T01:42:22;5.35;;;4.35;;
16484;SDS011;8353;47.856;12.344;2023-06-26T01:45:12;4.45;;;4.05;;
16484;SDS011;8353;47.856;12.344;2023-06-26T01:48:02;5.00;;;4.50;;
16484;SDS011;8353;47.856;12.344;2023-06-26T01:50:52;4.18;;;3.78;;
16484;SDS011;8353;47.856;12.344;2023-06-26T01:53:41;4.25;;;3.83;;
16484;SDS011;8353;47.856;12.344;2023-06-26T01:56:32;4.75;;;4.32;;
16484;SDS011;8353;47.856;12.344;2023-06-26T01:59:19;4.15;;;3.75;;
16484;SDS011;8353;47.856;12.344;2023-06-26T02:02:09;4.78;;;4.25;;
16484;SDS011;8353;47.856;12.344;2023-06-26T02:04:56;4.55;;;4.15;;
16484;SDS011;8353;47.856;12.344;2023-06-26T02:07:43;4.53;;;4.13;;
16484;SDS011;8353;47.856;12.344;2023-06-26T02:10:30;4.40;;;4.00;;
16484;SDS011;8353;47.856;12.344;2023-06-26T02:13:20;4.90;;;4.20;;
16484;SDS011;8353;47.856;12.344;2023-06-26T02:16:07;6.10;;;5.50;;
16484;SDS011;8353;47.856;12.344;2023-06-26T02:18:55;4.28;;;3.88;;
16484;SDS011;8353;47.856;12.344;2023-06-26T02:21:42;4.20;;;3.80;;
16484;SDS011;8353;47.856;12.344;2023-06-26T02:24:29;3.97;;;3.58;;
16484;SDS011;8353;47.856;12.344;2023-06-26T02:27:17;5.45;;;4.78;;
16484;SDS011;8353;47.856;12.344;2023-06-26T02:30:04;4.30;;;3.92;;
16484;SDS011;8353;47.856;12.344;2023-06-26T02:32:52;4.55;;;4.15;;
16484;SDS011;8353;47.856;12.344;2023-06-26T02:35:40;4.50;;;4.10;;
16484;SDS011;8353;47.856;12.344;2023-06-26T02:38:27;4.57;;;4.18;;
16484;SDS011;8353;47.856;12.344;2023-06-26T02:41:14;4.30;;;3.90;;
16484;SDS011;8353;47.856;12.344;2023-06-26T02:44:01;4.00;;;3.60;;
16484;SDS011;8353;47.856;12.344;2023-06-26T02:46:48;5.13;;;4.68;;
16484;SDS011;8353;47.856;12.344;2023-06-26T02:49:35;4.57;;;4.18;;
16484;SDS011;8353;47.856;12.344;2023-06-26T02:52:23;5.63;;;4.60;;
16484;SDS011;8353;47.856;12.344;2023-06-26T02:55:10;4.15;;;3.75;;
16484;SDS011;8353;47.856;12.344;2023-06-26T02:57:57;4.35;;;3.95;;
16484;SDS011;8353;47.856;12.344;2023-06-26T03:00:44;4.70;;;4.30;;
16484;SDS011;8353;47.856;12.344;2023-06-26T03:03:32;5.15;;;4.65;;
16484;SDS011;8353;47.856;12.344;2023-06-26T03:06:25;5.28;;;4.60;;
16484;SDS011;8353;47.856;12.344;2023-06-26T03:09:13;4.30;;;3.90;;
16484;SDS011;8353;47.856;12.344;2023-06-26T03:12:02;4.13;;;3.75;;
16484;SDS011;8353;47.856;12.344;2023-06-26T03:14:49;4.53;;;4.13;;
16484;SDS011;8353;47.856;12.344;2023-06-26T03:17:36;5.38;;;4.25;;
16484;SDS011;8353;47.856;12.344;2023-06-26T03:20:23;5.00;;;4.15;;
16484;SDS011;8353;47.856;12.344;2023-06-26T03:23:09;4.72;;;4.22;;
16484;SDS011;8353;47.856;12.344;2023-06-26T03:25:58;4.97;;;4.53;;
16484;SDS011;8353;47.856;12.344;2023-06-26T03:28:44;3.97;;;3.67;;
16484;SDS011;8353;47.856;12.344;2023-06-26T03:31:31;4.78;;;4.32;;
16484;SDS011;8353;47.856;12.344;2023-06-26T03:34:18;5.80;;;4.90;;
16484;SDS011;8353;47.856;12.344;2023-06-26T03:37:05;4.97;;;4.50;;
16484;SDS011;8353;47.856;12.344;2023-06-26T03:39:52;7.53;;;6.07;;
16484;SDS011;8353;47.856;12.344;2023-06-26T03:42:40;4.80;;;4.38;;
16484;SDS011;8353;47.856;12.344;2023-06-26T03:45:28;4.78;;;4.38;;
16484;SDS011;8353;47.856;12.344;2023-06-26T03:48:15;4.75;;;4.35;;
16484;SDS011;8353;47.856;12.344;2023-06-26T03:51:02;5.25;;;4.70;;
16484;SDS011;8353;47.856;12.344;2023-06-26T03:53:49;5.93;;;4.43;;
16484;SDS011;8353;47.856;12.344;2023-06-26T03:56:36;5.13;;;4.63;;
16484;SDS011;8353;47.856;12.344;2023-06-26T03:59:24;4.10;;;3.70;;
16484;SDS011;8353;47.856;12.344;2023-06-26T04:02:11;4.78;;;4.32;;
16484;SDS011;8353;47.856;12.344;2023-06-26T04:04:58;10.02;;;5.20;;
16484;SDS011;8353;47.856;12.344;2023-06-26T04:07:45;5.70;;;5.13;;
16484;SDS011;8353;47.856;12.344;2023-06-26T04:10:35;5.43;;;4.93;;
16484;SDS011;8353;47.856;12.344;2023-06-26T04:13:22;5.00;;;4.47;;
16484;SDS011;8353;47.856;12.344;2023-06-26T04:16:10;6.70;;;5.28;;
16484;SDS011;8353;47.856;12.344;2023-06-26T04:18:57;5.50;;;5.00;;
16484;SDS011;8353;47.856;12.344;2023-06-26T04:21:44;4.47;;;4.07;;
16484;SDS011;8353;47.856;12.344;2023-06-26T04:24:31;4.80;;;4.35;;
16484;SDS011;8353;47.856;12.344;2023-06-26T04:27:18;4.65;;;4.22;;
16484;SDS011;8353;47.856;12.344;2023-06-26T04:30:06;4.90;;;4.40;;
16484;SDS011;8353;47.856;12.344;2023-06-26T04:32:55;6.40;;;5.57;;
16484;SDS011;8353;47.856;12.344;2023-06-26T04:35:46;4.90;;;4.40;;
16484;SDS011;8353;47.856;12.344;2023-06-26T04:38:33;5.28;;;4.70;;
16484;SDS011;8353;47.856;12.344;2023-06-26T04:41:21;6.93;;;5.40;;
16484;SDS011;8353;47.856;12.344;2023-06-26T04:44:08;4.65;;;4.18;;
16484;SDS011;8353;47.856;12.344;2023-06-26T04:46:54;6.30;;;5.70;;
16484;SDS011;8353;47.856;12.344;2023-06-26T04:49:43;8.05;;;5.93;;
16484;SDS011;8353;47.856;12.344;2023-06-26T04:52:31;5.22;;;4.72;;
16484;SDS011;8353;47.856;12.344;2023-06-26T04:55:17;5.57;;;5.00;;
16484;SDS011;8353;47.856;12.344;2023-06-26T04:58:06;7.18;;;5.70;;
16484;SDS011;8353;47.856;12.344;2023-06-26T05:00:53;5.18;;;4.47;;
16484;SDS011;8353;47.856;12.344;2023-06-26T05:03:40;7.85;;;5.45;;
16484;SDS011;8353;47.856;12.344;2023-06-26T05:06:28;5.10;;;4.60;;
16484;SDS011;8353;47.856;12.344;2023-06-26T05:09:15;10.77;;;6.82;;
16484;SDS011;8353;47.856;12.344;2023-06-26T05:12:02;5.93;;;5.25;;
16484;SDS011;8353;47.856;12.344;2023-06-26T05:14:50;7.53;;;6.72;;
16484;SDS011;8353;47.856;12.344;2023-06-26T05:17:36;8.27;;;7.35;;
16484;SDS011;8353;47.856;12.344;2023-06-26T05:20:23;5.22;;;4.72;;
16484;SDS011;8353;47.856;12.344;2023-06-26T05:23:12;5.90;;;5.30;;
16484;SDS011;8353;47.856;12.344;2023-06-26T05:25:59;7.97;;;7.18;;
16484;SDS011;8353;47.856;12.344;2023-06-26T05:28:47;5.93;;;5.18;;
16484;SDS011;8353;47.856;12.344;2023-06-26T05:31:34;7.70;;;5.32;;
16484;SDS011;8353;47.856;12.344;2023-06-26T05:34:27;6.63;;;5.50;;
16484;SDS011;8353;47.856;12.344;2023-06-26T05:37:14;14.63;;;7.97;;
16484;SDS011;8353;47.856;12.344;2023-06-26T05:40:07;16.77;;;8.77;;
16484;SDS011;8353;47.856;12.344;2023-06-26T05:42:55;9.15;;;7.63;;
16484;SDS011;8353;47.856;12.344;2023-06-26T05:45:42;7.97;;;6.40;;
16484;SDS011;8353;47.856;12.344;2023-06-26T05:48:29;11.30;;;8.32;;
16484;SDS011;8353;47.856;12.344;2023-06-26T05:51:16;27.48;;;9.63;;
16484;SDS011;8353;47.856;12.344;2023-06-26T05:54:04;12.63;;;7.68;;
16484;SDS011;8353;47.856;12.344;2023-06-26T05:56:52;9.30;;;7.63;;
16484;SDS011;8353;47.856;12.344;2023-06-26T05:59:44;10.20;;;6.75;;
16484;SDS011;8353;47.856;12.344;2023-06-26T06:02:34;9.10;;;6.82;;
16484;SDS011;8353;47.856;12.344;2023-06-26T06:05:21;9.38;;;7.93;;
16484;SDS011;8353;47.856;12.344;2023-06-26T06:08:08;6.20;;;4.85;;
16484;SDS011;8353;47.856;12.344;2023-06-26T06:10:54;7.93;;;7.13;;
16484;SDS011;8353;47.856;12.344;2023-06-26T06:13:43;7.40;;;5.35;;
16484;SDS011;8353;47.856;12.344;2023-06-26T06:16:29;6.20;;;5.60;;
16484;SDS011;8353;47.856;12.344;2023-06-26T06:19:18;8.52;;;7.00;;
16484;SDS011;8353;47.856;12.344;2023-06-26T06:22:04;5.25;;;4.78;;
16484;SDS011;8353;47.856;12.344;2023-06-26T06:24:51;5.60;;;5.10;;
16484;SDS011;8353;47.856;12.344;2023-06-26T06:27:38;11.20;;;7.35;;
16484;SDS011;8353;47.856;12.344;2023-06-26T06:30:26;6.43;;;5.80;;
16484;SDS011;8353;47.856;12.344;2023-06-26T06:33:13;5.65;;;5.15;;
16484;SDS011;8353;47.856;12.344;2023-06-26T06:36:00;7.90;;;7.10;;
16484;SDS011;8353;47.856;12.344;2023-06-26T06:38:49;6.53;;;5.90;;
16484;SDS011;8353;47.856;12.344;2023-06-26T06:41:36;8.00;;;6.72;;
16484;SDS011;8353;47.856;12.344;2023-06-26T06:44:23;7.50;;;6.80;;
16484;SDS011;8353;47.856;12.344;2023-06-26T06:47:11;8.05;;;6.15;;
16484;SDS011;8353;47.856;12.344;2023-06-26T06:49:59;8.73;;;6.13;;
16484;SDS011;8353;47.856;12.344;2023-06-26T06:52:52;6.80;;;6.20;;
16484;SDS011;8353;47.856;12.344;2023-06-26T06:55:39;7.50;;;6.80;;
16484;SDS011;8353;47.856;12.344;2023-06-26T06:58:26;7.20;;;6.45;;
16484;SDS011;8353;47.856;12.344;2023-06-26T07:01:14;6.30;;;5.70;;
16484;SDS011;8353;47.856;12.344;2023-06-26T07:04:02;8.05;;;7.28;;
16484;SDS011;8353;47.856;12.344;2023-06-26T07:06:50;8.27;;;6.28;;
16484;SDS011;8353;47.856;12.344;2023-06-26T07:09:36;6.10;;;5.50;;
16484;SDS011;8353;47.856;12.344;2023-06-26T07:12:24;5.63;;;5.13;;
16484;SDS011;8353;47.856;12.344;2023-06-26T07:15:11;6.55;;;6.03;;
16484;SDS011;8353;47.856;12.344;2023-06-26T07:17:58;6.03;;;5.43;;
16484;SDS011;8353;47.856;12.344;2023-06-26T07:20:46;8.25;;;7.43;;
16484;SDS011;8353;47.856;12.344;2023-06-26T07:23:33;7.95;;;5.75;;
16484;SDS011;8353;47.856;12.344;2023-06-26T07:26:20;6.60;;;6.00;;
16484;SDS011;8353;47.856;12.344;2023-06-26T07:29:08;6.80;;;6.20;;
16484;SDS011;8353;47.856;12.344;2023-06-26T07:31:54;6.43;;;5.72;;
16484;SDS011;8353;47.856;12.344;2023-06-26T07:34:41;6.93;;;6.18;;
16484;SDS011;8353;47.856;12.344;2023-06-26T07:37:29;7.40;;;6.60;;
16484;SDS011;8353;47.856;12.344;2023-06-26T07:40:16;6.43;;;5.82;;
16484;SDS011;8353;47.856;12.344;2023-06-26T07:43:03;6.03;;;5.43;;
16484;SDS011;8353;47.856;12.344;2023-06-26T07:45:50;7.10;;;6.15;;
16484;SDS011;8353;47.856;12.344;2023-06-26T07:48:38;7.10;;;6.50;;
16484;SDS011;8353;47.856;12.344;2023-06-26T07:51:25;6.00;;;5.47;;
16484;SDS011;8353;47.856;12.344;2023-06-26T07:54:13;6.68;;;6.07;;
16484;SDS011;8353;47.856;12.344;2023-06-26T07:57:05;7.05;;;6.45;;
16484;SDS011;8353;47.856;12.344;2023-06-26T07:59:53;5.90;;;5.40;;
16484;SDS011;8353;47.856;12.344;2023-06-26T08:02:40;6.10;;;5.50;;
16484;SDS011;8353;47.856;12.344;2023-06-26T08:05:27;5.53;;;5.10;;
16484;SDS011;8353;47.856;12.344;2023-06-26T08:08:14;6.30;;;5.70;;
16484;SDS011;8353;47.856;12.344;2023-06-26T08:11:06;5.57;;;5.07;;
16484;SDS011;8353;47.856;12.344;2023-06-26T08:14:21;5.75;;;5.25;;
16484;SDS011;8353;47.856;12.344;2023-06-26T08:17:09;5.20;;;4.70;;
16484;SDS011;8353;47.856;12.344;2023-06-26T08:19:56;5.68;;;5.18;;
16484;SDS011;8353;47.856;12.344;2023-06-26T08:22:43;5.25;;;4.82;;
16484;SDS011;8353;47.856;12.344;2023-06-26T08:25:30;5.57;;;5.18;;
16484;SDS011;8353;47.856;12.344;2023-06-26T08:28:18;5.70;;;5.20;;
16484;SDS011;8353;47.856;12.344;2023-06-26T08:31:05;5.80;;;5.30;;
16484;SDS011;8353;47.856;12.344;2023-06-26T08:33:51;5.63;;;5.10;;
16484;SDS011;8353;47.856;12.344;2023-06-26T08:36:38;5.65;;;5.15;;
16484;SDS011;8353;47.856;12.344;2023-06-26T08:39:27;5.82;;;5.22;;
16484;SDS011;8353;47.856;12.344;2023-06-26T08:42:14;6.07;;;5.53;;
16484;SDS011;8353;47.856;12.344;2023-06-26T08:45:02;6.13;;;5.53;;
16484;SDS011;8353;47.856;12.344;2023-06-26T08:47:51;6.10;;;5.25;;
16484;SDS011;8353;47.856;12.344;2023-06-26T08:50:41;6.13;;;5.53;;
16484;SDS011;8353;47.856;12.344;2023-06-26T08:53:29;6.13;;;5.53;;
16484;SDS011;8353;47.856;12.344;2023-06-26T08:56:21;5.57;;;5.07;;
16484;SDS011;8353;47.856;12.344;2023-06-26T08:59:10;5.82;;;5.32;;
16484;SDS011;8353;47.856;12.344;2023-06-26T09:02:05;6.05;;;5.55;;
16484;SDS011;8353;47.856;12.344;2023-06-26T09:04:52;6.50;;;5.80;;
16484;SDS011;8353;47.856;12.344;2023-06-26T09:07:39;6.85;;;6.10;;
16484;SDS011;8353;47.856;12.344;2023-06-26T09:10:27;6.45;;;5.70;;
16484;SDS011;8353;47.856;12.344;2023-06-26T09:13:14;6.60;;;6.00;;
16484;SDS011;8353;47.856;12.344;2023-06-26T09:16:04;6.53;;;5.93;;
16484;SDS011;8353;47.856;12.344;2023-06-26T09:18:55;6.03;;;5.50;;
16484;SDS011;8353;47.856;12.344;2023-06-26T09:21:44;6.13;;;5.63;;
16484;SDS011;8353;47.856;12.344;2023-06-26T09:24:31;6.00;;;5.50;;
16484;SDS011;8353;47.856;12.344;2023-06-26T09:27:18;6.40;;;5.80;;
16484;SDS011;8353;47.856;12.344;2023-06-26T09:30:05;6.53;;;5.63;;
16484;SDS011;8353;47.856;12.344;2023-06-26T09:32:53;5.57;;;5.07;;
16484;SDS011;8353;47.856;12.344;2023-06-26T09:35:42;5.93;;;5.43;;
16484;SDS011;8353;47.856;12.344;2023-06-26T09:38:29;5.75;;;5.25;;
16484;SDS011;8353;47.856;12.344;2023-06-26T09:41:16;5.40;;;4.90;;
16484;SDS011;8353;47.856;12.344;2023-06-26T09:44:05;6.43;;;5.82;;
16484;SDS011;8353;47.856;12.344;2023-06-26T09:46:52;6.32;;;5.72;;
16484;SDS011;8353;47.856;12.344;2023-06-26T09:49:41;5.38;;;4.97;;
16484;SDS011;8353;47.856;12.344;2023-06-26T09:52:31;6.30;;;5.80;;
16484;SDS011;8353;47.856;12.344;2023-06-26T09:55:20;5.47;;;4.97;;
16484;SDS011;8353;47.856;12.344;2023-06-26T09:58:07;5.97;;;5.40;;
16484;SDS011;8353;47.856;12.344;2023-06-26T10:01:00;6.68;;;5.97;;
16484;SDS011;8353;47.856;12.344;2023-06-26T10:03:47;6.80;;;6.20;;
16484;SDS011;8353;47.856;12.344;2023-06-26T10:06:35;6.25;;;5.72;;
16484;SDS011;8353;47.856;12.344;2023-06-26T10:09:26;6.78;;;6.18;;
16484;SDS011;8353;47.856;12.344;2023-06-26T10:12:16;6.03;;;5.53;;
16484;SDS011;8353;47.856;12.344;2023-06-26T10:15:06;5.78;;;5.28;;
16484;SDS011;8353;47.856;12.344;2023-06-26T10:17:57;5.63;;;5.22;;
16484;SDS011;8353;47.856;12.344;2023-06-26T10:20:44;6.13;;;5.35;;
16484;SDS011;8353;47.856;12.344;2023-06-26T10:23:34;6.05;;;5.55;;
16484;SDS011;8353;47.856;12.344;2023-06-26T10:26:24;9.88;;;8.88;;
16484;SDS011;8353;47.856;12.344;2023-06-26T10:29:19;6.63;;;6.03;;
16484;SDS011;8353;47.856;12.344;2023-06-26T10:32:10;7.95;;;7.20;;
16484;SDS011;8353;47.856;12.344;2023-06-26T10:34:58;7.25;;;6.65;;
16484;SDS011;8353;47.856;12.344;2023-06-26T10:37:48;7.63;;;6.75;;
16484;SDS011;8353;47.856;12.344;2023-06-26T10:40:42;6.05;;;5.55;;
16484;SDS011;8353;47.856;12.344;2023-06-26T10:43:35;6.40;;;5.80;;
16484;SDS011;8353;47.856;12.344;2023-06-26T10:46:25;6.45;;;5.85;;
16484;SDS011;8353;47.856;12.344;2023-06-26T10:49:13;6.80;;;5.80;;
16484;SDS011;8353;47.856;12.344;2023-06-26T10:52:00;6.70;;;6.10;;
16484;SDS011;8353;47.856;12.344;2023-06-26T10:54:49;6.70;;;5.95;;
16484;SDS011;8353;47.856;12.344;2023-06-26T10:57:35;5.70;;;5.20;;
16484;SDS011;8353;47.856;12.344;2023-06-26T11:00:24;6.18;;;5.68;;
16484;SDS011;8353;47.856;12.344;2023-06-26T11:03:22;6.07;;;5.55;;
16484;SDS011;8353;47.856;12.344;2023-06-26T11:06:10;5.95;;;5.47;;
16484;SDS011;8353;47.856;12.344;2023-06-26T11:09:00;5.40;;;4.90;;
16484;SDS011;8353;47.856;12.344;2023-06-26T11:11:57;5.38;;;4.97;;
16484;SDS011;8353;47.856;12.344;2023-06-26T11:14:47;5.60;;;5.10;;
16484;SDS011;8353;47.856;12.344;2023-06-26T11:17:36;6.28;;;5.68;;
16484;SDS011;8353;47.856;12.344;2023-06-26T11:20:24;6.00;;;5.50;;
16484;SDS011;8353;47.856;12.344;2023-06-26T11:23:10;4.80;;;4.40;;
16484;SDS011;8353;47.856;12.344;2023-06-26T11:26:09;5.90;;;5.30;;
16484;SDS011;8353;47.856;12.344;2023-06-26T11:29:01;5.65;;;5.15;;
16484;SDS011;8353;47.856;12.344;2023-06-26T11:31:48;5.22;;;4.72;;
16484;SDS011;8353;47.856;12.344;2023-06-26T11:34:47;6.00;;;5.10;;
16484;SDS011;8353;47.856;12.344;2023-06-26T11:37:34;5.03;;;4.63;;
16484;SDS011;8353;47.856;12.344;2023-06-26T11:40:22;5.38;;;4.97;;
16484;SDS011;8353;47.856;12.344;2023-06-26T11:43:12;5.55;;;5.05;;
16484;SDS011;8353;47.856;12.344;2023-06-26T11:46:05;4.40;;;4.10;;
16484;SDS011;8353;47.856;12.344;2023-06-26T11:48:52;4.60;;;4.20;;
16484;SDS011;8353;47.856;12.344;2023-06-26T11:51:43;4.55;;;4.25;;
16484;SDS011;8353;47.856;12.344;2023-06-26T11:54:32;4.32;;;4.03;;
16484;SDS011;8353;47.856;12.344;2023-06-26T11:57:19;6.85;;;4.85;;
16484;SDS011;8353;47.856;12.344;2023-06-26T12:00:10;4.13;;;3.83;;
16484;SDS011;8353;47.856;12.344;2023-06-26T12:02:58;3.95;;;3.65;;
16484;SDS011;8353;47.856;12.344;2023-06-26T12:05:45;4.28;;;3.88;;
16484;SDS011;8353;47.856;12.344;2023-06-26T12:08:33;3.65;;;3.40;;
16484;SDS011;8353;47.856;12.344;2023-06-26T12:11:21;3.80;;;3.50;;
16484;SDS011;8353;47.856;12.344;2023-06-26T12:14:10;4.05;;;3.75;;
16484;SDS011;8353;47.856;12.344;2023-06-26T12:17:04;4.03;;;3.72;;
16484;SDS011;8353;47.856;12.344;2023-06-26T12:19:53;4.20;;;3.90;;
16484;SDS011;8353;47.856;12.344;2023-06-26T12:22:42;3.72;;;3.42;;
16484;SDS011;8353;47.856;12.344;2023-06-26T12:25:32;3.75;;;3.53;;
16484;SDS011;8353;47.856;12.344;2023-06-26T12:28:19;4.20;;;3.55;;
16484;SDS011;8353;47.856;12.344;2023-06-26T12:31:12;4.40;;;4.10;;
16484;SDS011;8353;47.856;12.344;2023-06-26T12:34:00;3.55;;;3.25;;
16484;SDS011;8353;47.856;12.344;2023-06-26T12:36:53;4.00;;;3.70;;
16484;SDS011;8353;47.856;12.344;2023-06-26T12:39:46;3.47;;;3.17;;
16484;SDS011;8353;47.856;12.344;2023-06-26T12:42:35;3.78;;;3.47;;
16484;SDS011;8353;47.856;12.344;2023-06-26T12:45:22;3.60;;;3.30;;
16484;SDS011;8353;47.856;12.344;2023-06-26T12:48:10;3.60;;;3.40;;
16484;SDS011;8353;47.856;12.344;2023-06-26T12:50:58;3.60;;;3.33;;
16484;SDS011;8353;47.856;12.344;2023-06-26T12:53:45;4.18;;;3.55;;
16484;SDS011;8353;47.856;12.344;2023-06-26T12:56:33;3.83;;;3.53;;
16484;SDS011;8353;47.856;12.344;2023-06-26T12:59:21;3.58;;;3.30;;
16484;SDS011;8353;47.856;12.344;2023-06-26T13:02:13;3.72;;;3.42;;
16484;SDS011;8353;47.856;12.344;2023-06-26T13:04:59;3.47;;;3.17;;
16484;SDS011;8353;47.856;12.344;2023-06-26T13:07:46;5.78;;;3.80;;
16484;SDS011;8353;47.856;12.344;2023-06-26T13:10:35;3.55;;;3.25;;
16484;SDS011;8353;47.856;12.344;2023-06-26T13:13:22;3.78;;;3.47;;
16484;SDS011;8353;47.856;12.344;2023-06-26T13:16:10;3.38;;;3.17;;
16484;SDS011;8353;47.856;12.344;2023-06-26T13:18:57;4.65;;;4.25;;
16484;SDS011;8353;47.856;12.344;2023-06-26T13:21:45;3.60;;;3.30;;
16484;SDS011;8353;47.856;12.344;2023-06-26T13:24:31;3.83;;;3.63;;
16484;SDS011;8353;47.856;12.344;2023-06-26T13:27:18;4.60;;;4.20;;
16484;SDS011;8353;47.856;12.344;2023-06-26T13:30:06;4.13;;;3.83;;
16484;SDS011;8353;47.856;12.344;2023-06-26T13:32:55;4.03;;;3.72;;
16484;SDS011;8353;47.856;12.344;2023-06-26T13:35:42;4.45;;;4.03;;
16484;SDS011;8353;47.856;12.344;2023-06-26T13:38:29;3.97;;;3.67;;
16484;SDS011;8353;47.856;12.344;2023-06-26T13:41:15;3.80;;;3.50;;
16484;SDS011;8353;47.856;12.344;2023-06-26T13:44:04;4.90;;;4.40;;
16484;SDS011;8353;47.856;12.344;2023-06-26T13:46:51;4.50;;;4.20;;
16484;SDS011;8353;47.856;12.344;2023-06-26T13:49:40;5.68;;;4.50;;
16484;SDS011;8353;47.856;12.344;2023-06-26T13:52:27;4.60;;;4.22;;
16484;SDS011;8353;47.856;12.344;2023-06-26T13:55:13;4.65;;;4.30;;
16484;SDS011;8353;47.856;12.344;2023-06-26T13:58:01;4.40;;;4.07;;
16484;SDS011;8353;47.856;12.344;2023-06-26T14:00:49;5.65;;;4.18;;
16484;SDS011;8353;47.856;12.344;2023-06-26T14:03:36;4.60;;;4.20;;
16484;SDS011;8353;47.856;12.344;2023-06-26T14:06:24;4.53;;;4.05;;
16484;SDS011;8353;47.856;12.344;2023-06-26T14:09:11;4.85;;;4.53;;
16484;SDS011;8353;47.856;12.344;2023-06-26T14:11:58;4.93;;;4.53;;
16484;SDS011;8353;47.856;12.344;2023-06-26T14:14:45;5.25;;;4.60;;
16484;SDS011;8353;47.856;12.344;2023-06-26T14:17:31;4.30;;;4.00;;
16484;SDS011;8353;47.856;12.344;2023-06-26T14:20:18;4.72;;;4.43;;
16484;SDS011;8353;47.856;12.344;2023-06-26T14:23:08;5.60;;;4.78;;
16484;SDS011;8353;47.856;12.344;2023-06-26T14:25:55;4.57;;;4.20;;
16484;SDS011;8353;47.856;12.344;2023-06-26T14:28:42;4.50;;;4.10;;
16484;SDS011;8353;47.856;12.344;2023-06-26T14:31:30;4.65;;;4.25;;
16484;SDS011;8353;47.856;12.344;2023-06-26T14:34:17;4.60;;;4.30;;
16484;SDS011;8353;47.856;12.344;2023-06-26T14:37:06;4.93;;;4.63;;
16484;SDS011;8353;47.856;12.344;2023-06-26T14:39:54;4.88;;;4.47;;
16484;SDS011;8353;47.856;12.344;2023-06-26T14:42:42;5.10;;;4.70;;
16484;SDS011;8353;47.856;12.344;2023-06-26T14:45:30;4.93;;;4.03;;
16484;SDS011;8353;47.856;12.344;2023-06-26T14:48:17;5.22;;;4.72;;
16484;SDS011;8353;47.856;12.344;2023-06-26T14:51:04;6.13;;;4.47;;
16484;SDS011;8353;47.856;12.344;2023-06-26T14:53:51;4.50;;;4.15;;
16484;SDS011;8353;47.856;12.344;2023-06-26T14:56:39;5.18;;;4.75;;
16484;SDS011;8353;47.856;12.344;2023-06-26T14:59:28;5.85;;;5.43;;
16484;SDS011;8353;47.856;12.344;2023-06-26T15:02:15;4.85;;;4.40;;
16484;SDS011;8353;47.856;12.344;2023-06-26T15:05:02;4.22;;;3.92;;
16484;SDS011;8353;47.856;12.344;2023-06-26T15:07:49;5.25;;;4.85;;
16484;SDS011;8353;47.856;12.344;2023-06-26T15:10:36;5.32;;;4.93;;
16484;SDS011;8353;47.856;12.344;2023-06-26T15:13:24;5.38;;;4.97;;
16484;SDS011;8353;47.856;12.344;2023-06-26T15:16:11;4.90;;;4.40;;
16484;SDS011;8353;47.856;12.344;2023-06-26T15:18:58;5.70;;;5.20;;
16484;SDS011;8353;47.856;12.344;2023-06-26T15:21:45;5.20;;;4.70;;
16484;SDS011;8353;47.856;12.344;2023-06-26T15:24:31;4.82;;;4.38;;
16484;SDS011;8353;47.856;12.344;2023-06-26T15:27:18;5.65;;;5.13;;
16484;SDS011;8353;47.856;12.344;2023-06-26T15:30:07;4.88;;;4.43;;
16484;SDS011;8353;47.856;12.344;2023-06-26T15:32:54;4.78;;;4.38;;
16484;SDS011;8353;47.856;12.344;2023-06-26T15:35:41;5.28;;;4.88;;
16484;SDS011;8353;47.856;12.344;2023-06-26T15:38:28;5.03;;;4.63;;
16484;SDS011;8353;47.856;12.344;2023-06-26T15:41:15;5.95;;;5.45;;
16484;SDS011;8353;47.856;12.344;2023-06-26T15:44:02;5.18;;;4.78;;
16484;SDS011;8353;47.856;12.344;2023-06-26T15:46:51;5.35;;;4.95;;
16484;SDS011;8353;47.856;12.344;2023-06-26T15:49:43;5.65;;;4.78;;
16484;SDS011;8353;47.856;12.344;2023-06-26T15:52:30;5.30;;;4.90;;
16484;SDS011;8353;47.856;12.344;2023-06-26T15:55:17;5.97;;;5.38;;
16484;SDS011;8353;47.856;12.344;2023-06-26T15:58:03;5.65;;;5.15;;
16484;SDS011;8353;47.856;12.344;2023-06-26T16:00:50;5.57;;;5.18;;
16484;SDS011;8353;47.856;12.344;2023-06-26T16:03:38;5.55;;;5.05;;
16484;SDS011;8353;47.856;12.344;2023-06-26T16:06:26;5.53;;;4.95;;
16484;SDS011;8353;47.856;12.344;2023-06-26T16:09:12;5.50;;;5.10;;
16484;SDS011;8353;47.856;12.344;2023-06-26T16:12:00;5.70;;;5.30;;
16484;SDS011;8353;47.856;12.344;2023-06-26T16:14:46;5.30;;;4.90;;
16484;SDS011;8353;47.856;12.344;2023-06-26T16:17:33;5.22;;;4.80;;
16484;SDS011;8353;47.856;12.344;2023-06-26T16:20:21;5.72;;;5.10;;
16484;SDS011;8353;47.856;12.344;2023-06-26T16:23:08;7.38;;;5.88;;
16484;SDS011;8353;47.856;12.344;2023-06-26T16:25:57;5.38;;;4.97;;
16484;SDS011;8353;47.856;12.344;2023-06-26T16:28:44;6.13;;;5.55;;
16484;SDS011;8353;47.856;12.344;2023-06-26T16:31:33;5.65;;;5.25;;
16484;SDS011;8353;47.856;12.344;2023-06-26T16:34:20;6.38;;;5.88;;
16484;SDS011;8353;47.856;12.344;2023-06-26T16:37:08;5.85;;;5.35;;
16484;SDS011;8353;47.856;12.344;2023-06-26T16:39:55;5.88;;;5.38;;
16484;SDS011;8353;47.856;12.344;2023-06-26T16:42:42;6.45;;;5.85;;
16484;SDS011;8353;47.856;12.344;2023-06-26T16:45:29;5.95;;;5.45;;
16484;SDS011;8353;47.856;12.344;2023-06-26T16:48:16;6.40;;;5.80;;
16484;SDS011;8353;47.856;12.344;2023-06-26T16:51:03;11.38;;;8.90;;
16484;SDS011;8353;47.856;12.344;2023-06-26T16:53:56;6.20;;;5.60;;